Time;durP1;ratioP1;P1;durP2;ratioP2;P2;SDS_P1;SDS_P2;PMS_P1;PMS_P2;Temp;Humidity;BMP_temperature;BMP_pressure;BME280_temperature;BME280_humidity;BME280_pressure;Samples;Min_cycle;Max_cycle;Signal;HPM_P1;HPM_P2
2024/04/05 00:00:53;;;;;;;3.63;1.80;;;;;;;;;;4920756;29;20425;-82
2024/04/05 00:03:22;;;;;;;4.45;2.47;;;;;;;;;;4908236;29;20122;-81
2024/04/05 00:05:50;;;;;;;9.77;2.10;;;;;;;;;;4936835;29;20401;-81
2024/04/05 00:08:25;;;;;;;2.50;1.33;;;;;;;;;;4926610;29;20039;-80
2024/04/05 00:10:53;;;;;;;6.10;1.98;;;;;;;;;;4908797;29;20055;-81
2024/04/05 00:13:23;;;;;;;5.65;1.90;;;;;;;;;;4937204;29;20051;-81
2024/04/05 00:15:52;;;;;;;9.57;2.10;;;;;;;;;;4920640;29;20047;-80
2024/04/05 00:18:20;;;;;;;6.43;1.83;;;;;;;;;;4921593;29;20051;-83
2024/04/05 00:20:49;;;;;;;6.72;1.92;;;;;;;;;;4936911;29;20051;-81
2024/04/05 00:23:17;;;;;;;4.35;2.03;;;;;;;;;;4921533;29;20074;-81
2024/04/05 00:25:46;;;;;;;8.77;2.33;;;;;;;;;;4921529;29;20047;-79
2024/04/05 00:28:14;;;;;;;5.75;2.10;;;;;;;;;;4937145;29;20699;-81
2024/04/05 00:30:42;;;;;;;4.35;2.05;;;;;;;;;;4936543;29;20065;-80
2024/04/05 00:33:11;;;;;;;4.15;2.08;;;;;;;;;;4937113;29;20067;-80
2024/04/05 00:35:48;;;;;;;6.55;2.20;;;;;;;;;;4937025;29;20552;-80
2024/04/05 00:38:20;;;;;;;6.45;2.78;;;;;;;;;;4920432;29;20062;-81
2024/04/05 00:40:48;;;;;;;10.02;1.95;;;;;;;;;;4917163;29;20428;-80
2024/04/05 00:43:17;;;;;;;9.23;2.03;;;;;;;;;;4918002;29;20044;-81
2024/04/05 00:45:51;;;;;;;9.00;2.33;;;;;;;;;;4902204;29;20055;-83
2024/04/05 00:48:21;;;;;;;6.00;2.70;;;;;;;;;;4901656;29;20391;-80
2024/04/05 00:50:54;;;;;;;6.75;2.10;;;;;;;;;;4917518;29;20047;-84
2024/04/05 00:53:41;;;;;;;6.15;1.92;;;;;;;;;;4917429;29;20055;-81
2024/04/05 00:56:10;;;;;;;8.50;2.05;;;;;;;;;;4901841;29;20060;-81
2024/04/05 00:58:39;;;;;;;8.55;2.65;;;;;;;;;;4901845;29;20055;-80
2024/04/05 01:01:08;;;;;;;7.22;2.47;;;;;;;;;;4901303;29;20396;-80
2024/04/05 01:03:38;;;;;;;8.07;2.95;;;;;;;;;;4917113;29;20056;-81
2024/04/05 01:06:06;;;;;;;6.75;2.13;;;;;;;;;;4902401;29;20059;-81
2024/04/05 01:08:35;;;;;;;6.95;2.30;;;;;;;;;;4905074;29;20055;-82
2024/04/05 01:11:03;;;;;;;8.63;2.33;;;;;;;;;;4918039;29;20048;-78
2024/04/05 01:13:31;;;;;;;4.13;1.90;;;;;;;;;;4918831;29;20052;-84
2024/04/05 01:16:00;;;;;;;3.47;2.10;;;;;;;;;;4937700;29;20044;-82
2024/04/05 01:18:28;;;;;;;5.70;2.45;;;;;;;;;;4950825;29;20062;-82
2024/04/05 01:20:57;;;;;;;6.13;2.45;;;;;;;;;;4934471;29;20505;-81
2024/04/05 01:23:56;;;;;;;7.13;3.95;;;;;;;;;;4942305;29;20479;-81
2024/04/05 01:26:25;;;;;;;6.90;3.10;;;;;;;;;;4927985;28;20055;-81
2024/04/05 01:28:53;;;;;;;4.65;2.00;;;;;;;;;;4949891;28;20031;-81
2024/04/05 01:31:21;;;;;;;11.05;2.90;;;;;;;;;;4949532;28;20039;-80
2024/04/05 01:33:49;;;;;;;5.40;2.13;;;;;;;;;;4949184;29;20051;-82
2024/04/05 01:36:17;;;;;;;6.93;2.28;;;;;;;;;;4948427;28;20053;-84
2024/04/05 01:38:45;;;;;;;4.15;1.98;;;;;;;;;;4952201;29;20051;-80
2024/04/05 01:41:13;;;;;;;4.05;2.13;;;;;;;;;;4941877;29;20394;-80
2024/04/05 01:43:41;;;;;;;6.93;2.67;;;;;;;;;;4926541;29;20047;-81
2024/04/05 01:46:11;;;;;;;10.88;2.50;;;;;;;;;;4941604;29;20369;-82
2024/04/05 01:48:40;;;;;;;4.18;2.17;;;;;;;;;;4941711;29;20054;-81
2024/04/05 01:51:08;;;;;;;10.43;2.60;;;;;;;;;;4941594;29;20098;-83
2024/04/05 01:53:36;;;;;;;7.35;3.47;;;;;;;;;;4942377;29;20043;-81
2024/04/05 01:56:05;;;;;;;5.30;2.85;;;;;;;;;;4941436;29;20051;-79
2024/04/05 01:58:33;;;;;;;5.60;2.67;;;;;;;;;;4909319;29;20066;-80
2024/04/05 02:01:02;;;;;;;5.10;2.60;;;;;;;;;;4925939;29;20047;-83
2024/04/05 02:03:30;;;;;;;11.30;4.90;;;;;;;;;;4924976;29;20055;-80
2024/04/05 02:05:58;;;;;;;7.15;3.05;;;;;;;;;;4925577;29;20051;-80
2024/04/05 02:08:28;;;;;;;8.43;3.70;;;;;;;;;;4924783;29;20062;-80
2024/04/05 02:10:56;;;;;;;6.57;2.63;;;;;;;;;;4940955;29;20054;-81
2024/04/05 02:13:25;;;;;;;7.45;2.40;;;;;;;;;;4925672;29;20043;-80
2024/04/05 02:15:53;;;;;;;6.00;2.75;;;;;;;;;;4909200;29;20055;-81
2024/04/05 02:18:21;;;;;;;5.45;2.40;;;;;;;;;;4924834;29;20073;-80
2024/04/05 02:21:07;;;;;;;4.82;2.72;;;;;;;;;;4940884;29;20051;-80
2024/04/05 02:23:36;;;;;;;6.47;2.55;;;;;;;;;;4941418;29;20043;-80
2024/04/05 02:26:04;;;;;;;10.77;2.47;;;;;;;;;;4941017;29;20047;-80
2024/04/05 02:28:34;;;;;;;7.43;2.40;;;;;;;;;;4941378;29;20066;-81
2024/04/05 02:31:02;;;;;;;6.25;2.08;;;;;;;;;;4940827;29;20051;-80
2024/04/05 02:33:30;;;;;;;8.25;2.92;;;;;;;;;;4925508;29;20046;-80
2024/04/05 02:35:59;;;;;;;5.93;2.20;;;;;;;;;;4924188;29;20509;-79
2024/04/05 02:38:28;;;;;;;7.97;2.30;;;;;;;;;;4940481;29;20047;-81
2024/04/05 02:40:56;;;;;;;7.63;2.47;;;;;;;;;;4924107;29;20051;-79
2024/04/05 02:43:24;;;;;;;5.45;2.30;;;;;;;;;;4909354;29;20483;-80
2024/04/05 02:45:53;;;;;;;6.57;2.42;;;;;;;;;;4924467;29;20066;-81
2024/04/05 02:48:21;;;;;;;9.52;2.20;;;;;;;;;;4941013;29;20054;-80
2024/04/05 02:50:49;;;;;;;10.60;3.17;;;;;;;;;;4940727;29;20047;-81
2024/04/05 02:53:17;;;;;;;5.07;2.15;;;;;;;;;;4940366;29;20046;-81
2024/04/05 02:55:45;;;;;;;4.82;2.28;;;;;;;;;;4910670;29;20063;-80
2024/04/05 02:58:13;;;;;;;11.00;2.70;;;;;;;;;;4921354;29;20162;-81
2024/04/05 03:00:45;;;;;;;10.18;2.28;;;;;;;;;;4921580;29;20054;-81
2024/04/05 03:03:13;;;;;;;4.68;2.22;;;;;;;;;;4921966;29;20040;-81
2024/04/05 03:05:42;;;;;;;9.50;2.95;;;;;;;;;;4905530;29;20051;-80
2024/04/05 03:08:10;;;;;;;6.93;2.50;;;;;;;;;;4904645;29;20499;-81
2024/04/05 03:10:38;;;;;;;6.25;2.00;;;;;;;;;;4905136;29;20051;-81
2024/04/05 03:13:07;;;;;;;8.85;2.38;;;;;;;;;;4921696;29;20043;-81
2024/04/05 03:15:36;;;;;;;12.80;2.40;;;;;;;;;;4921007;29;20051;-81
2024/04/05 03:18:04;;;;;;;10.43;2.47;;;;;;;;;;4920698;29;20059;-81
2024/04/05 03:20:32;;;;;;;6.78;2.53;;;;;;;;;;4920917;29;20043;-82
2024/04/05 03:23:00;;;;;;;12.15;2.55;;;;;;;;;;4905377;29;20498;-82
2024/04/05 03:25:29;;;;;;;8.57;2.55;;;;;;;;;;4921206;29;20048;-81
2024/04/05 03:27:57;;;;;;;7.55;2.47;;;;;;;;;;4920877;29;20051;-81
2024/04/05 03:30:25;;;;;;;11.18;2.50;;;;;;;;;;4889208;29;20059;-82
2024/04/05 03:32:53;;;;;;;9.73;2.65;;;;;;;;;;4888884;29;20047;-81
2024/04/05 03:35:22;;;;;;;5.03;2.65;;;;;;;;;;4903821;29;20056;-81
2024/04/05 03:37:56;;;;;;;9.65;2.47;;;;;;;;;;4918612;29;20410;-81
2024/04/05 03:40:25;;;;;;;9.13;2.63;;;;;;;;;;4918228;29;20047;-81
2024/04/05 03:42:53;;;;;;;6.65;2.53;;;;;;;;;;4919855;29;20047;-81
2024/04/05 03:45:22;;;;;;;12.10;3.47;;;;;;;;;;4889036;29;20052;-81
2024/04/05 03:47:50;;;;;;;6.85;2.60;;;;;;;;;;4904332;29;20056;-81
2024/04/05 03:50:43;;;;;;;5.78;2.95;;;;;;;;;;4928856;29;20395;-83
2024/04/05 03:53:11;;;;;;;12.38;3.08;;;;;;;;;;4920584;29;20063;-80
2024/04/05 03:55:39;;;;;;;5.70;2.55;;;;;;;;;;4920718;29;20052;-81
2024/04/05 03:58:08;;;;;;;10.10;2.65;;;;;;;;;;4904512;29;20051;-81
2024/04/05 04:00:36;;;;;;;7.80;2.67;;;;;;;;;;4903293;29;20058;-81
2024/04/05 04:03:05;;;;;;;15.15;2.85;;;;;;;;;;4905365;29;20055;-81
2024/04/05 04:05:33;;;;;;;5.70;2.90;;;;;;;;;;4903724;29;20059;-83
2024/04/05 04:08:02;;;;;;;6.30;2.65;;;;;;;;;;4904030;29;20047;-83
2024/04/05 04:10:30;;;;;;;10.90;3.50;;;;;;;;;;4888495;29;20058;-81
2024/04/05 04:12:58;;;;;;;8.38;2.78;;;;;;;;;;4904263;29;20063;-81
2024/04/05 04:15:26;;;;;;;9.30;2.65;;;;;;;;;;4919800;29;20044;-81
2024/04/05 04:17:54;;;;;;;7.45;2.58;;;;;;;;;;4920143;29;20398;-80
2024/04/05 04:20:23;;;;;;;5.63;2.55;;;;;;;;;;4920510;29;20040;-81
2024/04/05 04:22:52;;;;;;;9.70;2.42;;;;;;;;;;4904183;29;20142;-82
2024/04/05 04:25:21;;;;;;;6.10;2.85;;;;;;;;;;4904182;29;20071;-84
2024/04/05 04:27:49;;;;;;;4.97;2.53;;;;;;;;;;4903564;29;20051;-83
2024/04/05 04:30:18;;;;;;;6.10;2.38;;;;;;;;;;4888357;29;20048;-83
2024/04/05 04:32:47;;;;;;;8.55;2.38;;;;;;;;;;4903370;29;20052;-83
2024/04/05 04:35:15;;;;;;;6.15;2.47;;;;;;;;;;4904344;29;20055;-83
2024/04/05 04:37:43;;;;;;;7.30;2.63;;;;;;;;;;4888241;29;20056;-81
2024/04/05 04:40:11;;;;;;;6.93;3.15;;;;;;;;;;4903960;29;20394;-80
2024/04/05 04:42:39;;;;;;;8.48;3.17;;;;;;;;;;4903409;29;20426;-81
2024/04/05 04:45:10;;;;;;;10.70;2.75;;;;;;;;;;4903696;29;20059;-80
2024/04/05 04:47:39;;;;;;;6.05;2.45;;;;;;;;;;4919876;29;20513;-81
2024/04/05 04:50:08;;;;;;;6.20;2.47;;;;;;;;;;4936074;29;20035;-81
2024/04/05 04:52:37;;;;;;;6.03;2.35;;;;;;;;;;4938389;29;20406;-81
2024/04/05 04:55:10;;;;;;;9.20;2.67;;;;;;;;;;4938529;29;20039;-83
2024/04/05 04:57:39;;;;;;;11.07;3.08;;;;;;;;;;4938043;29;20047;-83
2024/04/05 05:00:08;;;;;;;6.82;2.38;;;;;;;;;;4938089;29;20043;-82
2024/04/05 05:02:38;;;;;;;7.85;2.55;;;;;;;;;;4922202;29;20055;-81
2024/04/05 05:05:06;;;;;;;6.32;2.90;;;;;;;;;;4906312;29;20055;-81
2024/04/05 05:08:23;;;;;;;8.35;3.08;;;;;;;;;;4955464;29;20047;-84
2024/04/05 05:10:52;;;;;;;11.40;2.33;;;;;;;;;;4906218;29;20051;-84
2024/04/05 05:13:20;;;;;;;8.65;2.65;;;;;;;;;;4922062;29;20058;-81
2024/04/05 05:15:48;;;;;;;6.43;2.67;;;;;;;;;;4938440;29;20047;-80
2024/04/05 05:18:16;;;;;;;8.05;2.70;;;;;;;;;;4938181;29;20055;-82
2024/04/05 05:20:47;;;;;;;12.18;3.33;;;;;;;;;;4922153;29;20407;-82
2024/04/05 05:23:16;;;;;;;7.55;2.50;;;;;;;;;;4938171;29;20043;-81
2024/04/05 05:25:45;;;;;;;5.38;2.40;;;;;;;;;;4922422;29;20502;-82
2024/04/05 05:28:14;;;;;;;5.88;3.47;;;;;;;;;;4922077;29;20402;-82
2024/04/05 05:30:42;;;;;;;5.72;2.60;;;;;;;;;;4937908;29;20069;-81
2024/04/05 05:33:10;;;;;;;6.97;3.10;;;;;;;;;;4923200;29;20399;-82
2024/04/05 05:35:38;;;;;;;5.28;2.70;;;;;;;;;;4938112;29;20044;-82
2024/04/05 05:38:07;;;;;;;6.47;2.70;;;;;;;;;;4922521;29;20039;-82
2024/04/05 05:40:35;;;;;;;11.45;3.28;;;;;;;;;;4937730;29;20040;-82
2024/04/05 05:43:03;;;;;;;7.47;3.00;;;;;;;;;;4921881;29;20052;-83
2024/04/05 05:45:32;;;;;;;6.82;2.80;;;;;;;;;;4906420;29;20051;-81
2024/04/05 05:48:00;;;;;;;9.00;2.60;;;;;;;;;;4922989;29;20043;-82
2024/04/05 05:50:28;;;;;;;8.93;3.10;;;;;;;;;;4921310;29;20054;-81
2024/04/05 05:52:57;;;;;;;8.10;2.90;;;;;;;;;;4922153;29;20483;-83
2024/04/05 05:55:26;;;;;;;10.18;2.90;;;;;;;;;;4921808;28;20055;-81
2024/04/05 05:57:57;;;;;;;6.80;2.63;;;;;;;;;;4921072;29;20363;-81
2024/04/05 06:00:25;;;;;;;7.25;2.70;;;;;;;;;;4922213;29;20051;-81
2024/04/05 06:02:53;;;;;;;11.60;3.03;;;;;;;;;;4923973;29;20406;-81
2024/04/05 06:05:23;;;;;;;9.55;4.07;;;;;;;;;;4941826;29;20055;-82
2024/04/05 06:07:52;;;;;;;7.03;2.80;;;;;;;;;;4908956;29;20059;-81
2024/04/05 06:10:20;;;;;;;7.03;3.00;;;;;;;;;;4941141;29;20065;-83
2024/04/05 06:12:48;;;;;;;5.90;2.40;;;;;;;;;;4940465;29;20062;-81
2024/04/05 06:15:17;;;;;;;7.00;2.63;;;;;;;;;;4909417;29;20062;-81
2024/04/05 06:17:48;;;;;;;10.88;3.00;;;;;;;;;;4941099;29;20043;-82
2024/04/05 06:20:17;;;;;;;8.82;3.65;;;;;;;;;;4940933;29;20055;-82
2024/04/05 06:22:45;;;;;;;7.72;2.60;;;;;;;;;;4941297;29;20035;-82
2024/04/05 06:25:13;;;;;;;5.07;2.75;;;;;;;;;;4925511;29;20088;-84
2024/04/05 06:27:42;;;;;;;12.32;2.90;;;;;;;;;;4924841;29;20475;-82
2024/04/05 06:30:11;;;;;;;5.97;2.40;;;;;;;;;;4924698;29;20059;-83
2024/04/05 06:32:39;;;;;;;8.25;2.90;;;;;;;;;;4941188;29;20070;-82
2024/04/05 06:35:08;;;;;;;5.53;2.83;;;;;;;;;;4941117;29;20043;-83
2024/04/05 06:37:37;;;;;;;8.93;2.70;;;;;;;;;;4924992;29;20050;-84
2024/04/05 06:40:08;;;;;;;6.35;2.60;;;;;;;;;;4924014;29;20494;-82
2024/04/05 06:42:37;;;;;;;7.80;2.75;;;;;;;;;;4924615;29;20047;-82
2024/04/05 06:45:08;;;;;;;6.78;2.85;;;;;;;;;;4941458;29;20047;-82
2024/04/05 06:47:36;;;;;;;6.25;3.20;;;;;;;;;;4940839;29;20055;-82
2024/04/05 06:50:05;;;;;;;8.32;2.63;;;;;;;;;;4924790;29;20051;-82
2024/04/05 06:52:33;;;;;;;8.43;2.80;;;;;;;;;;4908555;29;20067;-82
2024/04/05 06:55:01;;;;;;;8.95;3.03;;;;;;;;;;4940658;29;20063;-81
2024/04/05 06:57:29;;;;;;;11.13;3.50;;;;;;;;;;4924347;29;20059;-81
2024/04/05 06:59:58;;;;;;;9.15;2.95;;;;;;;;;;4940594;29;20055;-81
2024/04/05 07:02:26;;;;;;;7.82;3.05;;;;;;;;;;4940588;29;20043;-82
2024/04/05 07:04:54;;;;;;;8.13;2.83;;;;;;;;;;4940153;29;20047;-81
2024/04/05 07:07:22;;;;;;;4.95;2.85;;;;;;;;;;4940078;29;20047;-84
2024/04/05 07:09:50;;;;;;;8.10;2.95;;;;;;;;;;4923942;29;20051;-83
2024/04/05 07:12:18;;;;;;;8.70;3.17;;;;;;;;;;4940124;29;20478;-81
2024/04/05 07:14:46;;;;;;;6.07;3.03;;;;;;;;;;4922412;29;20055;-82
2024/04/05 07:17:14;;;;;;;10.68;3.40;;;;;;;;;;4924967;29;20051;-82
2024/04/05 07:19:43;;;;;;;5.05;2.92;;;;;;;;;;4940743;29;20047;-82
2024/04/05 07:22:15;;;;;;;7.97;3.22;;;;;;;;;;4939707;29;20050;-81
2024/04/05 07:24:44;;;;;;;8.57;3.13;;;;;;;;;;4939939;29;20069;-82
2024/04/05 07:27:13;;;;;;;5.18;3.03;;;;;;;;;;4923831;29;20051;-81
2024/04/05 07:29:43;;;;;;;8.77;2.88;;;;;;;;;;4907683;29;20054;-81
2024/04/05 07:32:12;;;;;;;6.75;2.95;;;;;;;;;;4908239;29;20050;-81
2024/04/05 07:34:40;;;;;;;7.03;3.47;;;;;;;;;;4924211;29;20054;-81
2024/04/05 07:37:09;;;;;;;11.18;3.10;;;;;;;;;;4923536;29;20067;-81
2024/04/05 07:39:39;;;;;;;7.47;3.15;;;;;;;;;;4923528;29;20051;-81
2024/04/05 07:42:08;;;;;;;6.05;2.85;;;;;;;;;;4923164;29;20055;-81
2024/04/05 07:44:36;;;;;;;9.38;2.92;;;;;;;;;;4939432;29;20051;-81
2024/04/05 07:47:05;;;;;;;7.93;3.03;;;;;;;;;;4923570;29;20059;-82
2024/04/05 07:49:33;;;;;;;9.75;3.45;;;;;;;;;;4923566;29;20043;-82
2024/04/05 07:52:01;;;;;;;8.52;3.15;;;;;;;;;;4922673;29;20058;-82
2024/04/05 07:54:29;;;;;;;7.72;3.05;;;;;;;;;;4907358;29;20054;-82
2024/04/05 07:56:59;;;;;;;8.20;3.50;;;;;;;;;;4938851;29;20091;-83
2024/04/05 07:59:27;;;;;;;7.95;3.03;;;;;;;;;;4922788;29;20058;-82
2024/04/05 08:01:55;;;;;;;9.55;2.90;;;;;;;;;;4923906;29;20054;-82
2024/04/05 08:04:23;;;;;;;7.55;3.08;;;;;;;;;;4923351;29;20111;-81
2024/04/05 08:06:57;;;;;;;8.90;3.00;;;;;;;;;;4939342;29;20051;-82
2024/04/05 08:09:26;;;;;;;4.47;2.50;;;;;;;;;;4939352;29;20039;-83
2024/04/05 08:11:55;;;;;;;8.07;3.03;;;;;;;;;;4939301;29;20046;-83
2024/04/05 08:14:23;;;;;;;6.07;2.72;;;;;;;;;;4923069;29;20058;-82
2024/04/05 08:16:51;;;;;;;9.52;2.90;;;;;;;;;;4939154;29;20525;-81
2024/04/05 08:19:19;;;;;;;6.10;2.95;;;;;;;;;;4923100;29;20047;-83
2024/04/05 08:21:47;;;;;;;5.60;2.92;;;;;;;;;;4906782;29;20055;-82
2024/04/05 08:24:24;;;;;;;11.80;2.83;;;;;;;;;;4924778;28;20054;-82
2024/04/05 08:26:55;;;;;;;6.40;3.40;;;;;;;;;;4922662;29;20414;-81
2024/04/05 08:29:27;;;;;;;6.45;2.63;;;;;;;;;;4938658;29;20050;-81
2024/04/05 08:31:55;;;;;;;;;;;;;;;;;;4939709;29;20047;-83
2024/04/05 08:34:23;;;;;;;12.05;3.35;;;;;;;;;;4938530;29;19923;-83
2024/04/05 08:36:52;;;;;;;9.00;2.78;;;;;;;;;;4907009;29;20051;-83
2024/04/05 08:39:20;;;;;;;7.85;3.30;;;;;;;;;;4938551;29;20043;-83
2024/04/05 08:41:49;;;;;;;6.15;2.78;;;;;;;;;;4922577;29;20410;-82
2024/04/05 08:44:18;;;;;;;6.25;3.10;;;;;;;;;;4922949;29;20047;-82
2024/04/05 08:46:46;;;;;;;7.68;3.20;;;;;;;;;;4922371;29;20059;-82
2024/04/05 08:49:19;;;;;;;8.68;3.67;;;;;;;;;;4906637;29;20414;-81
2024/04/05 08:51:50;;;;;;;6.82;3.25;;;;;;;;;;4923228;29;20055;-83
2024/04/05 08:54:19;;;;;;;7.03;2.85;;;;;;;;;;4922626;29;20062;-83
2024/04/05 08:56:54;;;;;;;5.85;3.20;;;;;;;;;;4906608;29;20058;-83
2024/04/05 08:59:28;;;;;;;12.65;3.53;;;;;;;;;;4939251;29;20070;-82
2024/04/05 09:02:02;;;;;;;5.95;3.30;;;;;;;;;;4938732;29;20043;-81
2024/04/05 09:04:31;;;;;;;12.48;2.95;;;;;;;;;;4943262;29;20039;-82
2024/04/05 09:06:59;;;;;;;8.68;2.90;;;;;;;;;;4933320;29;20035;-84
2024/04/05 09:09:29;;;;;;;8.93;3.00;;;;;;;;;;4950810;29;20058;-82
2024/04/05 09:12:22;;;;;;;9.48;3.35;;;;;;;;;;4951584;29;20049;-83
2024/04/05 09:15:00;;;;;;;8.10;2.97;;;;;;;;;;4946167;29;20045;-83
2024/04/05 09:17:28;;;;;;;8.57;3.45;;;;;;;;;;4946513;28;20035;-83
2024/04/05 09:20:09;;;;;;;7.07;3.42;;;;;;;;;;4962610;29;20104;-83
2024/04/05 09:22:41;;;;;;;14.93;4.35;;;;;;;;;;4957802;29;20047;-83
2024/04/05 09:25:09;;;;;;;11.48;4.28;;;;;;;;;;4943741;29;20409;-83
2024/04/05 09:27:38;;;;;;;9.50;4.15;;;;;;;;;;4902611;29;20047;-83
2024/04/05 09:30:09;;;;;;;8.98;4.30;;;;;;;;;;4907694;29;20052;-83
2024/04/05 09:32:37;;;;;;;8.77;4.63;;;;;;;;;;4924961;29;20538;-82
2024/04/05 09:35:11;;;;;;;15.82;4.85;;;;;;;;;;4935030;29;20052;-83
2024/04/05 09:37:39;;;;;;;10.68;4.15;;;;;;;;;;4908900;29;20054;-81
2024/04/05 09:40:10;;;;;;;9.93;3.88;;;;;;;;;;4941350;29;20042;-81
2024/04/05 09:42:42;;;;;;;8.35;3.72;;;;;;;;;;4942341;29;20055;-81
2024/04/05 09:45:36;;;;;;;10.95;3.95;;;;;;;;;;4945779;29;20039;-81
2024/04/05 09:48:05;;;;;;;9.70;3.20;;;;;;;;;;4910351;29;20402;-82
2024/04/05 09:50:37;;;;;;;8.90;4.03;;;;;;;;;;4909507;29;20054;-81
2024/04/05 09:53:08;;;;;;;10.48;3.53;;;;;;;;;;4941855;29;20058;-82
2024/04/05 09:55:39;;;;;;;7.60;3.28;;;;;;;;;;4927036;29;20054;-83
2024/04/05 09:58:08;;;;;;;9.50;3.85;;;;;;;;;;4926598;29;20051;-81
2024/04/05 10:00:38;;;;;;;8.23;3.55;;;;;;;;;;4925695;29;20430;-81
2024/04/05 10:03:06;;;;;;;7.63;3.83;;;;;;;;;;4941674;29;20074;-84
2024/04/05 10:05:34;;;;;;;8.73;3.20;;;;;;;;;;4941161;29;20055;-82
2024/04/05 10:08:16;;;;;;;7.22;3.08;;;;;;;;;;4940740;29;20054;-83
2024/04/05 10:10:45;;;;;;;7.55;3.78;;;;;;;;;;4941785;29;20039;-81
2024/04/05 10:13:14;;;;;;;8.73;3.55;;;;;;;;;;4893960;29;20062;-82
2024/04/05 10:15:59;;;;;;;9.05;3.45;;;;;;;;;;4917459;29;20054;-81
2024/04/05 10:18:34;;;;;;;7.35;3.35;;;;;;;;;;4919100;29;20059;-82
2024/04/05 10:21:03;;;;;;;7.55;3.30;;;;;;;;;;4914573;29;20054;-81
2024/04/05 10:23:32;;;;;;;10.02;4.45;;;;;;;;;;4922767;29;20058;-83
2024/04/05 10:26:03;;;;;;;13.38;4.45;;;;;;;;;;4938782;29;20050;-82
2024/04/05 10:28:32;;;;;;;18.00;7.13;;;;;;;;;;4899412;29;20070;-81
2024/04/05 10:31:03;;;;;;;15.75;5.93;;;;;;;;;;4904480;29;20048;-81
2024/04/05 10:33:31;;;;;;;15.02;4.85;;;;;;;;;;4919074;29;20044;-82
2024/04/05 10:36:01;;;;;;;12.07;5.53;;;;;;;;;;4919714;29;20039;-83
2024/04/05 10:38:29;;;;;;;8.35;4.45;;;;;;;;;;4915234;29;20479;-83
2024/04/05 10:41:03;;;;;;;13.13;5.70;;;;;;;;;;4906755;29;20051;-82
2024/04/05 10:43:32;;;;;;;15.88;6.80;;;;;;;;;;4938989;29;20415;-82
2024/04/05 10:46:05;;;;;;;10.70;5.85;;;;;;;;;;4905945;29;20502;-81
2024/04/05 10:48:34;;;;;;;15.32;5.72;;;;;;;;;;4926585;29;20552;-83
2024/04/05 10:51:05;;;;;;;15.48;5.85;;;;;;;;;;4923118;29;20055;-82
2024/04/05 10:53:33;;;;;;;11.27;5.53;;;;;;;;;;4923699;29;20055;-83
2024/04/05 10:56:03;;;;;;;11.57;4.90;;;;;;;;;;4924122;29;20450;-82
2024/04/05 10:58:35;;;;;;;13.68;4.57;;;;;;;;;;4900812;29;20048;-82
2024/04/05 11:01:04;;;;;;;9.88;4.50;;;;;;;;;;4920631;29;20043;-83
2024/04/05 11:03:32;;;;;;;9.65;3.65;;;;;;;;;;4920463;29;20487;-84
2024/04/05 11:06:08;;;;;;;12.10;4.32;;;;;;;;;;4916492;29;20059;-81
2024/04/05 11:08:37;;;;;;;9.35;3.88;;;;;;;;;;4936131;29;20498;-81
2024/04/05 11:11:11;;;;;;;10.25;4.20;;;;;;;;;;4920426;29;20056;-80
2024/04/05 11:13:40;;;;;;;9.90;3.70;;;;;;;;;;4920288;29;20047;-81
2024/04/05 11:16:08;;;;;;;9.60;3.60;;;;;;;;;;4889633;29;20421;-80
2024/04/05 11:18:37;;;;;;;8.48;3.92;;;;;;;;;;4905377;29;20047;-79
2024/04/05 11:21:06;;;;;;;8.00;3.97;;;;;;;;;;4920831;29;20505;-81
2024/04/05 11:23:34;;;;;;;14.88;4.38;;;;;;;;;;4920948;29;20055;-81
2024/04/05 11:26:03;;;;;;;9.32;4.38;;;;;;;;;;4920728;29;20036;-81
2024/04/05 11:28:32;;;;;;;12.10;4.63;;;;;;;;;;4920731;29;20459;-81
2024/04/05 11:31:00;;;;;;;14.32;4.95;;;;;;;;;;4920652;29;20039;-80
2024/04/05 11:33:29;;;;;;;10.50;4.05;;;;;;;;;;4904760;29;20043;-80
2024/04/05 11:35:57;;;;;;;9.90;5.03;;;;;;;;;;4903576;29;20365;-82
2024/04/05 11:38:25;;;;;;;21.25;5.00;;;;;;;;;;4914970;29;20551;-82
2024/04/05 11:40:53;;;;;;;11.27;4.50;;;;;;;;;;4886183;29;20048;-81
2024/04/05 11:43:21;;;;;;;11.05;5.57;;;;;;;;;;4929989;29;20044;-82
2024/04/05 11:45:50;;;;;;;8.50;4.53;;;;;;;;;;4917246;29;20059;-80
2024/04/05 11:48:19;;;;;;;13.85;4.57;;;;;;;;;;4901075;29;20055;-81
2024/04/05 11:50:47;;;;;;;9.68;4.22;;;;;;;;;;4917270;29;20056;-81
2024/04/05 11:53:15;;;;;;;10.18;4.60;;;;;;;;;;4916962;29;20048;-82
2024/04/05 11:55:43;;;;;;;12.30;3.92;;;;;;;;;;4925173;29;20043;-81
2024/04/05 11:58:11;;;;;;;12.98;4.30;;;;;;;;;;4923449;29;20051;-81
2024/04/05 12:00:41;;;;;;;9.48;3.88;;;;;;;;;;4907032;29;20059;-82
2024/04/05 12:03:09;;;;;;;9.13;4.97;;;;;;;;;;4939224;29;20058;-82
2024/04/05 12:05:39;;;;;;;8.57;3.80;;;;;;;;;;4939188;29;20047;-84
2024/04/05 12:08:08;;;;;;;9.05;4.50;;;;;;;;;;4923361;29;20058;-82
2024/04/05 12:10:37;;;;;;;12.07;3.65;;;;;;;;;;4939128;29;20066;-82
2024/04/05 12:13:05;;;;;;;9.73;3.42;;;;;;;;;;4939367;29;20051;-82
2024/04/05 12:16:01;;;;;;;8.38;4.10;;;;;;;;;;4939219;29;20117;-82
2024/04/05 12:18:29;;;;;;;9.30;3.70;;;;;;;;;;4907462;29;20067;-83
2024/04/05 12:20:57;;;;;;;10.88;3.65;;;;;;;;;;4939333;28;20039;-83
2024/04/05 14:13:11;;;;;;;9.70;4.72;;;;;;;;;;5118444;27;20396;-81
2024/04/05 14:15:40;;;;;;;12.13;4.50;;;;;;;;;;5086064;28;20032;-84
2024/04/05 14:18:09;;;;;;;9.07;4.50;;;;;;;;;;5054851;28;20044;-80
2024/04/05 14:20:38;;;;;;;9.85;4.60;;;;;;;;;;5055689;28;20043;-80
2024/04/05 14:23:08;;;;;;;6.93;4.00;;;;;;;;;;5054593;28;20048;-82
2024/04/05 14:25:43;;;;;;;8.98;3.33;;;;;;;;;;5065424;28;20390;-82
2024/04/05 14:28:12;;;;;;;8.27;4.10;;;;;;;;;;5075181;28;20044;-82
2024/04/05 14:30:46;;;;;;;9.55;4.47;;;;;;;;;;5078266;28;20067;-82
2024/04/05 14:33:14;;;;;;;7.55;4.30;;;;;;;;;;5087159;28;20028;-83
2024/04/05 14:35:46;;;;;;;8.65;3.95;;;;;;;;;;5091745;28;20047;-84
2024/04/05 14:38:15;;;;;;;12.07;4.22;;;;;;;;;;5090682;28;20512;-84
2024/04/05 14:40:43;;;;;;;8.70;4.57;;;;;;;;;;5058373;28;20039;-83
2024/04/05 14:43:13;;;;;;;9.80;4.10;;;;;;;;;;5073326;28;20047;-81
2024/04/05 14:45:41;;;;;;;13.77;4.78;;;;;;;;;;5091482;28;20064;-83
2024/04/05 14:48:09;;;;;;;6.80;4.55;;;;;;;;;;5091609;28;20046;-83
2024/04/05 14:50:38;;;;;;;8.60;4.35;;;;;;;;;;5073963;28;20493;-83
2024/04/05 14:53:08;;;;;;;9.15;3.53;;;;;;;;;;5058134;28;20075;-83
2024/04/05 14:55:36;;;;;;;7.82;4.45;;;;;;;;;;5091974;28;20044;-84
2024/04/05 14:58:04;;;;;;;7.88;3.97;;;;;;;;;;5074784;28;20047;-86
2024/04/05 15:00:35;;;;;;;11.07;4.25;;;;;;;;;;5070751;28;20055;-83
2024/04/05 15:03:04;;;;;;;12.35;5.30;;;;;;;;;;5054231;28;20055;-84
2024/04/05 15:05:32;;;;;;;10.73;4.57;;;;;;;;;;5071538;28;20048;-86
2024/04/05 15:08:00;;;;;;;6.47;4.38;;;;;;;;;;5071469;28;20151;-83
2024/04/05 15:10:31;;;;;;;10.32;4.78;;;;;;;;;;5070891;28;20048;-83
2024/04/05 15:12:59;;;;;;;9.32;4.82;;;;;;;;;;5086507;28;20052;-83
2024/04/05 15:15:27;;;;;;;8.32;4.43;;;;;;;;;;5070564;28;20405;-84
2024/04/05 15:17:55;;;;;;;10.95;4.70;;;;;;;;;;5087395;28;20037;-84
2024/04/05 15:20:24;;;;;;;10.98;5.00;;;;;;;;;;5087934;28;20047;-83
2024/04/05 15:22:53;;;;;;;12.02;4.75;;;;;;;;;;5083131;28;20103;-83
2024/04/05 15:25:25;;;;;;;15.18;5.03;;;;;;;;;;5074494;28;20528;-86
2024/04/05 15:27:54;;;;;;;11.35;4.68;;;;;;;;;;5061960;28;20402;-84
2024/04/05 15:30:23;;;;;;;14.45;5.40;;;;;;;;;;5073882;28;20032;-82
2024/04/05 15:32:51;;;;;;;9.27;3.78;;;;;;;;;;5092671;28;20059;-82
2024/04/05 15:35:19;;;;;;;6.32;2.85;;;;;;;;;;5093744;28;20028;-82
2024/04/05 15:37:52;;;;;;;7.82;3.20;;;;;;;;;;5092351;28;20469;-82
2024/04/05 15:40:22;;;;;;;6.15;2.03;;;;;;;;;;5060342;28;20048;-81
2024/04/05 15:42:50;;;;;;;9.35;3.05;;;;;;;;;;5064787;28;20051;-82
2024/04/05 15:45:20;;;;;;;9.10;2.47;;;;;;;;;;5066771;28;20045;-81
2024/04/05 15:47:51;;;;;;;10.98;2.28;;;;;;;;;;5090905;28;20377;-82
2024/04/05 15:50:20;;;;;;;6.18;2.33;;;;;;;;;;5074853;28;20497;-83
2024/04/05 15:52:48;;;;;;;8.20;2.70;;;;;;;;;;5093590;28;20055;-83
2024/04/05 15:55:16;;;;;;;7.18;2.72;;;;;;;;;;5076335;28;20044;-82
2024/04/05 15:57:46;;;;;;;9.65;2.47;;;;;;;;;;5092636;28;20385;-83
2024/04/05 16:00:17;;;;;;;11.43;3.78;;;;;;;;;;5076592;28;20047;-83
2024/04/05 16:02:47;;;;;;;9.02;3.25;;;;;;;;;;5076767;28;20044;-81
2024/04/05 16:05:15;;;;;;;8.57;3.55;;;;;;;;;;5077065;28;20047;-84
2024/04/05 16:07:43;;;;;;;9.95;3.17;;;;;;;;;;5088172;28;20032;-82
2024/04/05 16:10:12;;;;;;;4.50;2.50;;;;;;;;;;5075411;28;20040;-84
2024/04/05 16:12:40;;;;;;;5.78;1.80;;;;;;;;;;5075552;28;20398;-86
2024/04/05 16:15:12;;;;;;;9.07;2.28;;;;;;;;;;5077010;28;20048;-82
2024/04/05 16:17:45;;;;;;;6.57;2.60;;;;;;;;;;5076126;28;20055;-82
2024/04/05 16:20:14;;;;;;;12.00;6.32;;;;;;;;;;5076187;28;20047;-83
2024/04/05 16:22:43;;;;;;;8.73;5.65;;;;;;;;;;5075948;28;20059;-82
2024/04/05 16:25:12;;;;;;;12.25;8.93;;;;;;;;;;5076155;28;20047;-83
2024/04/05 16:27:40;;;;;;;7.85;4.13;;;;;;;;;;5052849;28;20445;-83
2024/04/05 16:30:10;;;;;;;8.05;5.22;;;;;;;;;;5090161;28;20044;-83
2024/04/05 16:32:43;;;;;;;9.10;3.00;;;;;;;;;;5074465;28;20078;-84
2024/04/05 16:35:14;;;;;;;6.68;2.88;;;;;;;;;;5057781;28;20055;-83
2024/04/05 16:37:46;;;;;;;5.00;2.33;;;;;;;;;;5062848;28;20039;-83
2024/04/05 16:40:19;;;;;;;4.05;2.20;;;;;;;;;;5074441;28;20387;-82
2024/04/05 16:42:47;;;;;;;6.25;2.75;;;;;;;;;;5091141;28;20051;-83
2024/04/05 16:45:16;;;;;;;4.53;2.40;;;;;;;;;;5073563;28;20054;-84